sensor_id;sensor_type;location;lat;lon;timestamp;P1;durP1;ratioP1;P2;durP2;ratioP2
20647;SDS011;10483;44.646;10.924;2022-08-05T00:02:04;4.03;;;3.62;;
20647;SDS011;10483;44.646;10.924;2022-08-05T00:04:31;5.62;;;4.03;;
20647;SDS011;10483;44.646;10.924;2022-08-05T00:06:58;8.43;;;4.47;;
20647;SDS011;10483;44.646;10.924;2022-08-05T00:09:25;5.40;;;4.35;;
20647;SDS011;10483;44.646;10.924;2022-08-05T00:11:51;5.17;;;4.50;;
20647;SDS011;10483;44.646;10.924;2022-08-05T00:14:18;6.95;;;4.87;;
20647;SDS011;10483;44.646;10.924;2022-08-05T00:16:45;4.72;;;4.10;;
20647;SDS011;10483;44.646;10.924;2022-08-05T00:19:12;4.10;;;3.70;;
20647;SDS011;10483;44.646;10.924;2022-08-05T00:21:38;10.82;;;4.47;;
20647;SDS011;10483;44.646;10.924;2022-08-05T00:24:05;5.60;;;3.87;;
20647;SDS011;10483;44.646;10.924;2022-08-05T00:26:31;4.62;;;3.87;;
20647;SDS011;10483;44.646;10.924;2022-08-05T00:28:58;3.65;;;3.45;;
20647;SDS011;10483;44.646;10.924;2022-08-05T00:31:25;5.70;;;4.30;;
20647;SDS011;10483;44.646;10.924;2022-08-05T00:33:51;5.40;;;4.37;;
20647;SDS011;10483;44.646;10.924;2022-08-05T00:36:18;4.30;;;3.87;;
20647;SDS011;10483;44.646;10.924;2022-08-05T00:38:46;4.53;;;3.83;;
20647;SDS011;10483;44.646;10.924;2022-08-05T00:41:13;6.17;;;4.30;;
20647;SDS011;10483;44.646;10.924;2022-08-05T00:43:40;4.87;;;4.03;;
20647;SDS011;10483;44.646;10.924;2022-08-05T00:46:06;6.00;;;3.85;;
20647;SDS011;10483;44.646;10.924;2022-08-05T00:48:33;8.20;;;4.30;;
20647;SDS011;10483;44.646;10.924;2022-08-05T00:51:00;3.90;;;3.60;;
20647;SDS011;10483;44.646;10.924;2022-08-05T00:53:26;4.65;;;3.75;;
20647;SDS011;10483;44.646;10.924;2022-08-05T00:55:53;4.87;;;4.20;;
20647;SDS011;10483;44.646;10.924;2022-08-05T00:58:19;5.03;;;4.00;;
20647;SDS011;10483;44.646;10.924;2022-08-05T01:00:46;4.20;;;3.75;;
20647;SDS011;10483;44.646;10.924;2022-08-05T01:03:13;4.72;;;4.10;;
20647;SDS011;10483;44.646;10.924;2022-08-05T01:05:39;6.03;;;3.30;;
20647;SDS011;10483;44.646;10.924;2022-08-05T01:08:07;5.60;;;3.80;;
20647;SDS011;10483;44.646;10.924;2022-08-05T01:10:36;3.85;;;3.45;;
20647;SDS011;10483;44.646;10.924;2022-08-05T01:13:07;4.05;;;3.65;;
20647;SDS011;10483;44.646;10.924;2022-08-05T01:15:42;4.12;;;3.70;;
20647;SDS011;10483;44.646;10.924;2022-08-05T01:18:11;5.17;;;3.95;;
20647;SDS011;10483;44.646;10.924;2022-08-05T01:20:49;5.10;;;3.60;;
20647;SDS011;10483;44.646;10.924;2022-08-05T01:23:28;4.22;;;3.55;;
20647;SDS011;10483;44.646;10.924;2022-08-05T01:26:17;3.60;;;3.30;;
20647;SDS011;10483;44.646;10.924;2022-08-05T01:28:47;5.25;;;3.67;;
20647;SDS011;10483;44.646;10.924;2022-08-05T01:31:22;4.25;;;3.47;;
20647;SDS011;10483;44.646;10.924;2022-08-05T01:33:55;4.45;;;3.52;;
20647;SDS011;10483;44.646;10.924;2022-08-05T01:36:24;3.72;;;3.42;;
20647;SDS011;10483;44.646;10.924;2022-08-05T01:38:54;4.85;;;3.20;;
20647;SDS011;10483;44.646;10.924;2022-08-05T01:41:22;4.17;;;3.77;;
20647;SDS011;10483;44.646;10.924;2022-08-05T01:43:50;4.62;;;3.42;;
20647;SDS011;10483;44.646;10.924;2022-08-05T01:46:19;4.37;;;3.45;;
20647;SDS011;10483;44.646;10.924;2022-08-05T01:48:47;4.05;;;3.52;;
20647;SDS011;10483;44.646;10.924;2022-08-05T01:51:16;3.85;;;3.42;;
20647;SDS011;10483;44.646;10.924;2022-08-05T01:53:44;3.70;;;3.40;;
20647;SDS011;10483;44.646;10.924;2022-08-05T01:56:13;3.95;;;3.40;;
20647;SDS011;10483;44.646;10.924;2022-08-05T01:58:42;3.65;;;3.30;;
20647;SDS011;10483;44.646;10.924;2022-08-05T02:01:11;3.30;;;3.10;;
20647;SDS011;10483;44.646;10.924;2022-08-05T02:03:40;3.40;;;3.17;;
20647;SDS011;10483;44.646;10.924;2022-08-05T02:06:10;4.45;;;3.50;;
20647;SDS011;10483;44.646;10.924;2022-08-05T02:08:37;3.75;;;3.40;;
20647;SDS011;10483;44.646;10.924;2022-08-05T02:11:06;3.33;;;3.02;;
20647;SDS011;10483;44.646;10.924;2022-08-05T02:13:41;3.85;;;3.55;;
20647;SDS011;10483;44.646;10.924;2022-08-05T02:16:21;3.55;;;3.02;;
20647;SDS011;10483;44.646;10.924;2022-08-05T02:18:53;3.45;;;3.10;;
20647;SDS011;10483;44.646;10.924;2022-08-05T02:21:25;3.45;;;3.15;;
20647;SDS011;10483;44.646;10.924;2022-08-05T02:23:56;3.67;;;3.37;;
20647;SDS011;10483;44.646;10.924;2022-08-05T02:26:30;3.72;;;3.30;;
20647;SDS011;10483;44.646;10.924;2022-08-05T02:28:58;6.08;;;3.45;;
20647;SDS011;10483;44.646;10.924;2022-08-05T02:31:26;4.17;;;3.22;;
20647;SDS011;10483;44.646;10.924;2022-08-05T02:33:57;3.77;;;3.35;;
20647;SDS011;10483;44.646;10.924;2022-08-05T02:36:27;3.60;;;3.40;;
20647;SDS011;10483;44.646;10.924;2022-08-05T02:38:56;3.90;;;3.27;;
20647;SDS011;10483;44.646;10.924;2022-08-05T02:41:25;3.50;;;3.20;;
20647;SDS011;10483;44.646;10.924;2022-08-05T02:43:53;3.75;;;3.45;;
20647;SDS011;10483;44.646;10.924;2022-08-05T02:46:21;3.50;;;3.20;;
20647;SDS011;10483;44.646;10.924;2022-08-05T02:48:50;4.20;;;3.45;;
20647;SDS011;10483;44.646;10.924;2022-08-05T02:51:18;3.52;;;3.22;;
20647;SDS011;10483;44.646;10.924;2022-08-05T02:53:46;3.87;;;3.52;;
20647;SDS011;10483;44.646;10.924;2022-08-05T02:56:15;4.90;;;3.20;;
20647;SDS011;10483;44.646;10.924;2022-08-05T02:58:42;3.00;;;2.80;;
20647;SDS011;10483;44.646;10.924;2022-08-05T03:01:12;4.97;;;3.58;;
20647;SDS011;10483;44.646;10.924;2022-08-05T03:03:40;3.47;;;3.17;;
20647;SDS011;10483;44.646;10.924;2022-08-05T03:06:09;3.98;;;3.35;;
20647;SDS011;10483;44.646;10.924;2022-08-05T03:08:37;4.87;;;3.35;;
20647;SDS011;10483;44.646;10.924;2022-08-05T03:11:15;4.12;;;3.72;;
20647;SDS011;10483;44.646;10.924;2022-08-05T03:13:39;4.22;;;3.70;;
20647;SDS011;10483;44.646;10.924;2022-08-05T03:16:06;3.60;;;3.30;;
20647;SDS011;10483;44.646;10.924;2022-08-05T03:18:33;3.95;;;3.58;;
20647;SDS011;10483;44.646;10.924;2022-08-05T03:20:59;4.50;;;3.35;;
20647;SDS011;10483;44.646;10.924;2022-08-05T03:23:26;5.53;;;3.20;;
20647;SDS011;10483;44.646;10.924;2022-08-05T03:25:53;5.97;;;4.10;;
20647;SDS011;10483;44.646;10.924;2022-08-05T03:28:20;6.70;;;3.58;;
20647;SDS011;10483;44.646;10.924;2022-08-05T03:30:48;5.05;;;3.72;;
20647;SDS011;10483;44.646;10.924;2022-08-05T03:33:15;4.42;;;3.98;;
20647;SDS011;10483;44.646;10.924;2022-08-05T03:35:44;4.47;;;3.98;;
20647;SDS011;10483;44.646;10.924;2022-08-05T03:38:11;3.70;;;3.40;;
20647;SDS011;10483;44.646;10.924;2022-08-05T03:40:39;5.80;;;3.65;;
20647;SDS011;10483;44.646;10.924;2022-08-05T03:43:07;5.83;;;4.00;;
20647;SDS011;10483;44.646;10.924;2022-08-05T03:45:34;6.55;;;3.70;;
20647;SDS011;10483;44.646;10.924;2022-08-05T03:48:00;4.53;;;3.30;;
20647;SDS011;10483;44.646;10.924;2022-08-05T03:50:28;4.42;;;4.03;;
20647;SDS011;10483;44.646;10.924;2022-08-05T03:53:08;4.50;;;4.10;;
20647;SDS011;10483;44.646;10.924;2022-08-05T03:55:34;7.28;;;4.60;;
20647;SDS011;10483;44.646;10.924;2022-08-05T03:58:03;5.17;;;4.45;;
20647;SDS011;10483;44.646;10.924;2022-08-05T04:00:32;5.03;;;4.53;;
20647;SDS011;10483;44.646;10.924;2022-08-05T04:03:00;6.00;;;4.90;;
20647;SDS011;10483;44.646;10.924;2022-08-05T04:05:30;4.45;;;4.03;;
20647;SDS011;10483;44.646;10.924;2022-08-05T04:07:59;4.90;;;4.28;;
20647;SDS011;10483;44.646;10.924;2022-08-05T04:10:28;4.92;;;4.35;;
20647;SDS011;10483;44.646;10.924;2022-08-05T04:12:55;5.47;;;4.37;;
20647;SDS011;10483;44.646;10.924;2022-08-05T04:15:22;5.15;;;4.28;;
20647;SDS011;10483;44.646;10.924;2022-08-05T04:17:49;4.55;;;4.22;;
20647;SDS011;10483;44.646;10.924;2022-08-05T04:20:16;5.10;;;4.15;;
20647;SDS011;10483;44.646;10.924;2022-08-05T04:22:45;6.47;;;4.62;;
20647;SDS011;10483;44.646;10.924;2022-08-05T04:25:11;5.83;;;4.47;;
20647;SDS011;10483;44.646;10.924;2022-08-05T04:27:38;6.53;;;4.85;;
20647;SDS011;10483;44.646;10.924;2022-08-05T04:30:05;5.40;;;5.00;;
20647;SDS011;10483;44.646;10.924;2022-08-05T04:32:33;4.80;;;4.40;;
20647;SDS011;10483;44.646;10.924;2022-08-05T04:35:00;5.17;;;4.78;;
20647;SDS011;10483;44.646;10.924;2022-08-05T04:37:27;5.53;;;4.87;;
20647;SDS011;10483;44.646;10.924;2022-08-05T04:39:54;5.67;;;5.03;;
20647;SDS011;10483;44.646;10.924;2022-08-05T04:42:21;7.33;;;5.05;;
20647;SDS011;10483;44.646;10.924;2022-08-05T04:44:48;6.45;;;4.92;;
20647;SDS011;10483;44.646;10.924;2022-08-05T04:47:14;8.33;;;4.58;;
20647;SDS011;10483;44.646;10.924;2022-08-05T04:49:41;6.60;;;5.00;;
20647;SDS011;10483;44.646;10.924;2022-08-05T04:52:08;5.35;;;4.85;;
20647;SDS011;10483;44.646;10.924;2022-08-05T04:54:34;5.80;;;5.28;;
20647;SDS011;10483;44.646;10.924;2022-08-05T04:57:01;7.20;;;5.22;;
20647;SDS011;10483;44.646;10.924;2022-08-05T04:59:27;7.12;;;5.05;;
20647;SDS011;10483;44.646;10.924;2022-08-05T05:01:54;5.60;;;4.92;;
20647;SDS011;10483;44.646;10.924;2022-08-05T05:04:23;6.37;;;4.65;;
20647;SDS011;10483;44.646;10.924;2022-08-05T05:06:49;5.83;;;5.05;;
20647;SDS011;10483;44.646;10.924;2022-08-05T05:09:16;5.53;;;4.45;;
20647;SDS011;10483;44.646;10.924;2022-08-05T05:11:43;5.15;;;4.65;;
20647;SDS011;10483;44.646;10.924;2022-08-05T05:14:10;5.08;;;4.58;;
20647;SDS011;10483;44.646;10.924;2022-08-05T05:16:36;7.78;;;4.03;;
20647;SDS011;10483;44.646;10.924;2022-08-05T05:19:03;5.37;;;4.33;;
20647;SDS011;10483;44.646;10.924;2022-08-05T05:21:29;5.45;;;4.30;;
20647;SDS011;10483;44.646;10.924;2022-08-05T05:23:56;6.58;;;4.78;;
20647;SDS011;10483;44.646;10.924;2022-08-05T05:26:22;7.00;;;5.08;;
20647;SDS011;10483;44.646;10.924;2022-08-05T05:28:49;5.37;;;4.87;;
20647;SDS011;10483;44.646;10.924;2022-08-05T05:31:16;5.00;;;4.53;;
20647;SDS011;10483;44.646;10.924;2022-08-05T05:33:42;5.53;;;4.85;;
20647;SDS011;10483;44.646;10.924;2022-08-05T05:36:09;6.65;;;5.08;;
20647;SDS011;10483;44.646;10.924;2022-08-05T05:38:36;7.95;;;4.92;;
20647;SDS011;10483;44.646;10.924;2022-08-05T05:41:02;5.67;;;5.08;;
20647;SDS011;10483;44.646;10.924;2022-08-05T05:43:29;5.97;;;5.20;;
20647;SDS011;10483;44.646;10.924;2022-08-05T05:45:55;6.03;;;4.87;;
20647;SDS011;10483;44.646;10.924;2022-08-05T05:48:22;5.62;;;5.12;;
20647;SDS011;10483;44.646;10.924;2022-08-05T05:50:50;7.28;;;5.30;;
20647;SDS011;10483;44.646;10.924;2022-08-05T05:53:17;7.87;;;5.00;;
20647;SDS011;10483;44.646;10.924;2022-08-05T05:55:44;4.72;;;4.35;;
20647;SDS011;10483;44.646;10.924;2022-08-05T05:58:11;5.10;;;4.58;;
20647;SDS011;10483;44.646;10.924;2022-08-05T06:00:38;9.03;;;5.00;;
20647;SDS011;10483;44.646;10.924;2022-08-05T06:03:04;4.97;;;4.58;;
20647;SDS011;10483;44.646;10.924;2022-08-05T06:05:31;5.83;;;4.35;;
20647;SDS011;10483;44.646;10.924;2022-08-05T06:07:58;5.37;;;4.37;;
20647;SDS011;10483;44.646;10.924;2022-08-05T06:10:24;6.20;;;5.37;;
20647;SDS011;10483;44.646;10.924;2022-08-05T06:12:51;6.95;;;4.60;;
20647;SDS011;10483;44.646;10.924;2022-08-05T06:15:17;7.12;;;5.00;;
20647;SDS011;10483;44.646;10.924;2022-08-05T06:17:44;5.85;;;4.67;;
20647;SDS011;10483;44.646;10.924;2022-08-05T06:20:11;5.55;;;4.58;;
20647;SDS011;10483;44.646;10.924;2022-08-05T06:22:37;5.60;;;5.10;;
20647;SDS011;10483;44.646;10.924;2022-08-05T06:25:04;5.35;;;4.85;;
20647;SDS011;10483;44.646;10.924;2022-08-05T06:27:33;6.40;;;4.97;;
20647;SDS011;10483;44.646;10.924;2022-08-05T06:30:00;8.45;;;5.65;;
20647;SDS011;10483;44.646;10.924;2022-08-05T06:32:28;6.05;;;4.67;;
20647;SDS011;10483;44.646;10.924;2022-08-05T06:34:55;8.20;;;5.15;;
20647;SDS011;10483;44.646;10.924;2022-08-05T06:37:23;4.12;;;3.83;;
20647;SDS011;10483;44.646;10.924;2022-08-05T06:39:51;5.33;;;4.65;;
20647;SDS011;10483;44.646;10.924;2022-08-05T06:42:18;6.00;;;4.70;;
20647;SDS011;10483;44.646;10.924;2022-08-05T06:44:44;5.83;;;4.50;;
20647;SDS011;10483;44.646;10.924;2022-08-05T06:47:11;5.33;;;4.50;;
20647;SDS011;10483;44.646;10.924;2022-08-05T06:49:38;4.70;;;4.20;;
20647;SDS011;10483;44.646;10.924;2022-08-05T06:52:05;5.45;;;4.55;;
20647;SDS011;10483;44.646;10.924;2022-08-05T06:54:31;10.55;;;4.58;;
20647;SDS011;10483;44.646;10.924;2022-08-05T06:56:58;5.22;;;4.80;;
20647;SDS011;10483;44.646;10.924;2022-08-05T06:59:25;4.78;;;4.37;;
20647;SDS011;10483;44.646;10.924;2022-08-05T07:01:51;16.77;;;6.00;;
20647;SDS011;10483;44.646;10.924;2022-08-05T07:04:18;7.37;;;4.55;;
20647;SDS011;10483;44.646;10.924;2022-08-05T07:06:44;4.58;;;4.10;;
20647;SDS011;10483;44.646;10.924;2022-08-05T07:09:11;4.80;;;4.35;;
20647;SDS011;10483;44.646;10.924;2022-08-05T07:11:38;20.17;;;17.52;;
20647;SDS011;10483;44.646;10.924;2022-08-05T07:14:04;18.48;;;16.52;;
20647;SDS011;10483;44.646;10.924;2022-08-05T07:16:36;15.78;;;14.20;;
20647;SDS011;10483;44.646;10.924;2022-08-05T07:19:09;11.88;;;10.68;;
20647;SDS011;10483;44.646;10.924;2022-08-05T07:21:36;7.87;;;7.08;;
20647;SDS011;10483;44.646;10.924;2022-08-05T07:24:03;8.03;;;7.22;;
20647;SDS011;10483;44.646;10.924;2022-08-05T07:26:30;5.95;;;5.03;;
20647;SDS011;10483;44.646;10.924;2022-08-05T07:28:56;6.67;;;4.45;;
20647;SDS011;10483;44.646;10.924;2022-08-05T07:31:23;4.22;;;3.80;;
20647;SDS011;10483;44.646;10.924;2022-08-05T07:33:50;4.22;;;3.92;;
20647;SDS011;10483;44.646;10.924;2022-08-05T07:36:16;4.03;;;3.47;;
20647;SDS011;10483;44.646;10.924;2022-08-05T07:38:43;4.35;;;3.95;;
20647;SDS011;10483;44.646;10.924;2022-08-05T07:41:10;6.92;;;3.90;;
20647;SDS011;10483;44.646;10.924;2022-08-05T07:43:40;4.40;;;3.83;;
20647;SDS011;10483;44.646;10.924;2022-08-05T07:46:07;3.90;;;3.60;;
20647;SDS011;10483;44.646;10.924;2022-08-05T07:48:34;4.05;;;3.60;;
20647;SDS011;10483;44.646;10.924;2022-08-05T07:51:00;3.67;;;3.37;;
20647;SDS011;10483;44.646;10.924;2022-08-05T07:53:27;4.08;;;3.77;;
20647;SDS011;10483;44.646;10.924;2022-08-05T07:55:54;3.95;;;3.50;;
20647;SDS011;10483;44.646;10.924;2022-08-05T07:58:20;5.35;;;3.67;;
20647;SDS011;10483;44.646;10.924;2022-08-05T08:00:47;3.52;;;3.22;;
20647;SDS011;10483;44.646;10.924;2022-08-05T08:03:15;4.10;;;3.75;;
20647;SDS011;10483;44.646;10.924;2022-08-05T08:05:42;4.00;;;3.65;;
20647;SDS011;10483;44.646;10.924;2022-08-05T08:08:09;4.25;;;3.67;;
20647;SDS011;10483;44.646;10.924;2022-08-05T08:10:36;5.72;;;4.30;;
20647;SDS011;10483;44.646;10.924;2022-08-05T08:13:04;4.30;;;3.58;;
20647;SDS011;10483;44.646;10.924;2022-08-05T08:15:31;4.58;;;4.08;;
20647;SDS011;10483;44.646;10.924;2022-08-05T08:17:58;5.25;;;3.50;;
20647;SDS011;10483;44.646;10.924;2022-08-05T08:20:24;3.62;;;3.40;;
20647;SDS011;10483;44.646;10.924;2022-08-05T08:22:52;3.98;;;3.67;;
20647;SDS011;10483;44.646;10.924;2022-08-05T08:25:20;3.90;;;3.60;;
20647;SDS011;10483;44.646;10.924;2022-08-05T08:27:48;4.30;;;3.90;;
20647;SDS011;10483;44.646;10.924;2022-08-05T08:30:15;3.95;;;3.58;;
20647;SDS011;10483;44.646;10.924;2022-08-05T08:32:41;4.03;;;3.72;;
20647;SDS011;10483;44.646;10.924;2022-08-05T08:35:08;4.40;;;3.70;;
20647;SDS011;10483;44.646;10.924;2022-08-05T08:37:35;3.98;;;3.67;;
20647;SDS011;10483;44.646;10.924;2022-08-05T08:40:02;3.90;;;3.50;;
20647;SDS011;10483;44.646;10.924;2022-08-05T08:42:29;3.37;;;3.10;;
20647;SDS011;10483;44.646;10.924;2022-08-05T08:44:57;4.08;;;3.40;;
20647;SDS011;10483;44.646;10.924;2022-08-05T08:47:26;3.95;;;3.42;;
20647;SDS011;10483;44.646;10.924;2022-08-05T08:49:53;3.42;;;3.12;;
20647;SDS011;10483;44.646;10.924;2022-08-05T08:52:30;3.35;;;2.90;;
20647;SDS011;10483;44.646;10.924;2022-08-05T08:54:52;3.47;;;3.10;;
20647;SDS011;10483;44.646;10.924;2022-08-05T08:57:19;3.90;;;3.50;;
20647;SDS011;10483;44.646;10.924;2022-08-05T08:59:47;3.58;;;3.22;;
20647;SDS011;10483;44.646;10.924;2022-08-05T09:02:15;3.62;;;3.35;;
20647;SDS011;10483;44.646;10.924;2022-08-05T09:04:44;3.55;;;3.25;;
20647;SDS011;10483;44.646;10.924;2022-08-05T09:07:11;3.33;;;3.02;;
20647;SDS011;10483;44.646;10.924;2022-08-05T09:09:38;3.33;;;3.00;;
20647;SDS011;10483;44.646;10.924;2022-08-05T09:12:07;3.62;;;3.00;;
20647;SDS011;10483;44.646;10.924;2022-08-05T09:14:34;3.10;;;2.90;;
20647;SDS011;10483;44.646;10.924;2022-08-05T09:17:03;3.30;;;3.10;;
20647;SDS011;10483;44.646;10.924;2022-08-05T09:19:31;5.83;;;3.50;;
20647;SDS011;10483;44.646;10.924;2022-08-05T09:21:58;4.75;;;3.47;;
20647;SDS011;10483;44.646;10.924;2022-08-05T09:24:25;4.22;;;3.60;;
20647;SDS011;10483;44.646;10.924;2022-08-05T09:26:52;3.20;;;2.90;;
20647;SDS011;10483;44.646;10.924;2022-08-05T09:29:35;3.90;;;3.08;;
20647;SDS011;10483;44.646;10.924;2022-08-05T09:31:59;3.42;;;3.12;;
20647;SDS011;10483;44.646;10.924;2022-08-05T09:34:29;3.45;;;3.17;;
20647;SDS011;10483;44.646;10.924;2022-08-05T09:37:18;4.10;;;3.77;;
20647;SDS011;10483;44.646;10.924;2022-08-05T09:39:46;4.08;;;3.77;;
20647;SDS011;10483;44.646;10.924;2022-08-05T09:42:13;3.30;;;3.10;;
20647;SDS011;10483;44.646;10.924;2022-08-05T09:44:42;3.70;;;3.40;;
20647;SDS011;10483;44.646;10.924;2022-08-05T09:47:13;3.67;;;3.47;;
20647;SDS011;10483;44.646;10.924;2022-08-05T09:49:46;3.12;;;2.92;;
20647;SDS011;10483;44.646;10.924;2022-08-05T09:52:19;4.62;;;3.67;;
20647;SDS011;10483;44.646;10.924;2022-08-05T09:54:54;3.37;;;3.08;;
20647;SDS011;10483;44.646;10.924;2022-08-05T09:57:38;3.05;;;2.85;;
20647;SDS011;10483;44.646;10.924;2022-08-05T10:00:13;3.72;;;3.47;;
20647;SDS011;10483;44.646;10.924;2022-08-05T10:02:44;4.20;;;3.45;;
20647;SDS011;10483;44.646;10.924;2022-08-05T10:05:14;2.90;;;2.70;;
20647;SDS011;10483;44.646;10.924;2022-08-05T10:07:45;2.80;;;2.60;;
20647;SDS011;10483;44.646;10.924;2022-08-05T10:10:16;13.30;;;12.15;;
20647;SDS011;10483;44.646;10.924;2022-08-05T10:12:45;3.55;;;3.33;;
20647;SDS011;10483;44.646;10.924;2022-08-05T10:15:18;3.55;;;3.25;;
20647;SDS011;10483;44.646;10.924;2022-08-05T10:20:26;3.27;;;2.98;;
20647;SDS011;10483;44.646;10.924;2022-08-05T10:22:52;4.03;;;3.02;;
20647;SDS011;10483;44.646;10.924;2022-08-05T10:25:21;2.85;;;2.50;;
20647;SDS011;10483;44.646;10.924;2022-08-05T10:27:47;2.83;;;2.52;;
20647;SDS011;10483;44.646;10.924;2022-08-05T10:30:17;2.90;;;2.70;;
20647;SDS011;10483;44.646;10.924;2022-08-05T10:32:44;2.90;;;2.70;;
20647;SDS011;10483;44.646;10.924;2022-08-05T10:35:12;2.80;;;2.60;;
20647;SDS011;10483;44.646;10.924;2022-08-05T10:37:39;4.60;;;4.30;;
20647;SDS011;10483;44.646;10.924;2022-08-05T10:40:09;2.90;;;2.70;;
20647;SDS011;10483;44.646;10.924;2022-08-05T10:42:43;3.10;;;2.77;;
20647;SDS011;10483;44.646;10.924;2022-08-05T10:45:13;3.12;;;2.47;;
20647;SDS011;10483;44.646;10.924;2022-08-05T10:47:41;3.02;;;2.83;;
20647;SDS011;10483;44.646;10.924;2022-08-05T10:50:10;2.50;;;2.30;;
20647;SDS011;10483;44.646;10.924;2022-08-05T10:52:39;2.67;;;2.47;;
20647;SDS011;10483;44.646;10.924;2022-08-05T10:55:11;3.08;;;2.80;;
20647;SDS011;10483;44.646;10.924;2022-08-05T10:57:39;2.85;;;2.50;;
20647;SDS011;10483;44.646;10.924;2022-08-05T11:00:16;3.00;;;2.77;;
20647;SDS011;10483;44.646;10.924;2022-08-05T11:03:07;2.70;;;2.50;;
20647;SDS011;10483;44.646;10.924;2022-08-05T11:05:35;2.70;;;2.50;;
20647;SDS011;10483;44.646;10.924;2022-08-05T11:08:05;2.50;;;2.40;;
20647;SDS011;10483;44.646;10.924;2022-08-05T11:10:34;3.35;;;2.80;;
20647;SDS011;10483;44.646;10.924;2022-08-05T11:13:02;3.25;;;2.10;;
20647;SDS011;10483;44.646;10.924;2022-08-05T11:15:34;2.60;;;2.40;;
20647;SDS011;10483;44.646;10.924;2022-08-05T11:18:08;4.12;;;2.67;;
20647;SDS011;10483;44.646;10.924;2022-08-05T11:20:58;2.80;;;2.60;;
20647;SDS011;10483;44.646;10.924;2022-08-05T11:23:28;3.42;;;2.40;;
20647;SDS011;10483;44.646;10.924;2022-08-05T11:26:00;2.80;;;2.60;;
20647;SDS011;10483;44.646;10.924;2022-08-05T11:28:43;2.72;;;2.40;;
20647;SDS011;10483;44.646;10.924;2022-08-05T11:31:19;2.45;;;2.25;;
20647;SDS011;10483;44.646;10.924;2022-08-05T11:33:52;2.75;;;2.50;;
20647;SDS011;10483;44.646;10.924;2022-08-05T11:36:57;3.22;;;2.90;;
20647;SDS011;10483;44.646;10.924;2022-08-05T11:39:15;2.75;;;2.55;;
20647;SDS011;10483;44.646;10.924;2022-08-05T11:41:51;3.45;;;2.75;;
20647;SDS011;10483;44.646;10.924;2022-08-05T11:44:18;2.50;;;2.30;;
20647;SDS011;10483;44.646;10.924;2022-08-05T11:46:47;2.87;;;2.50;;
20647;SDS011;10483;44.646;10.924;2022-08-05T11:49:16;3.25;;;2.95;;
20647;SDS011;10483;44.646;10.924;2022-08-05T11:51:44;3.70;;;2.50;;
20647;SDS011;10483;44.646;10.924;2022-08-05T11:54:13;3.25;;;2.83;;
20647;SDS011;10483;44.646;10.924;2022-08-05T11:56:59;2.55;;;2.35;;
20647;SDS011;10483;44.646;10.924;2022-08-05T11:59:28;3.17;;;2.75;;
20647;SDS011;10483;44.646;10.924;2022-08-05T12:01:58;2.65;;;2.45;;
20647;SDS011;10483;44.646;10.924;2022-08-05T12:04:37;3.05;;;2.52;;
20647;SDS011;10483;44.646;10.924;2022-08-05T12:07:05;3.33;;;2.50;;
20647;SDS011;10483;44.646;10.924;2022-08-05T12:09:37;2.95;;;2.75;;
20647;SDS011;10483;44.646;10.924;2022-08-05T12:12:07;3.22;;;2.47;;
20647;SDS011;10483;44.646;10.924;2022-08-05T12:14:35;2.98;;;2.52;;
20647;SDS011;10483;44.646;10.924;2022-08-05T12:17:07;2.60;;;2.40;;
20647;SDS011;10483;44.646;10.924;2022-08-05T12:19:40;2.85;;;2.65;;
20647;SDS011;10483;44.646;10.924;2022-08-05T12:22:09;3.65;;;2.58;;
20647;SDS011;10483;44.646;10.924;2022-08-05T12:24:39;3.25;;;2.50;;
20647;SDS011;10483;44.646;10.924;2022-08-05T12:27:07;2.70;;;2.50;;
20647;SDS011;10483;44.646;10.924;2022-08-05T12:29:35;3.12;;;2.92;;
20647;SDS011;10483;44.646;10.924;2022-08-05T12:32:03;3.30;;;3.10;;
20647;SDS011;10483;44.646;10.924;2022-08-05T12:34:32;3.50;;;3.17;;
20647;SDS011;10483;44.646;10.924;2022-08-05T12:37:04;3.50;;;3.20;;
20647;SDS011;10483;44.646;10.924;2022-08-05T12:39:36;3.20;;;2.90;;
20647;SDS011;10483;44.646;10.924;2022-08-05T12:42:09;3.50;;;3.20;;
20647;SDS011;10483;44.646;10.924;2022-08-05T12:44:37;3.00;;;2.72;;
20647;SDS011;10483;44.646;10.924;2022-08-05T12:47:04;3.12;;;2.92;;
20647;SDS011;10483;44.646;10.924;2022-08-05T12:49:38;3.37;;;3.17;;
20647;SDS011;10483;44.646;10.924;2022-08-05T12:52:11;2.90;;;2.70;;
20647;SDS011;10483;44.646;10.924;2022-08-05T12:54:40;2.72;;;2.52;;
20647;SDS011;10483;44.646;10.924;2022-08-05T12:57:08;2.40;;;2.20;;
20647;SDS011;10483;44.646;10.924;2022-08-05T13:02:10;2.77;;;2.55;;
20647;SDS011;10483;44.646;10.924;2022-08-05T13:04:40;3.30;;;2.80;;
20647;SDS011;10483;44.646;10.924;2022-08-05T13:07:09;3.27;;;3.05;;
20647;SDS011;10483;44.646;10.924;2022-08-05T13:09:39;3.05;;;2.85;;
20647;SDS011;10483;44.646;10.924;2022-08-05T13:12:10;3.12;;;2.83;;
20647;SDS011;10483;44.646;10.924;2022-08-05T13:14:41;2.90;;;2.60;;
20647;SDS011;10483;44.646;10.924;2022-08-05T13:17:17;3.30;;;3.08;;
20647;SDS011;10483;44.646;10.924;2022-08-05T13:22:27;3.00;;;2.70;;
20647;SDS011;10483;44.646;10.924;2022-08-05T13:24:54;2.90;;;2.70;;
20647;SDS011;10483;44.646;10.924;2022-08-05T13:27:23;3.70;;;2.83;;
20647;SDS011;10483;44.646;10.924;2022-08-05T13:29:52;3.08;;;2.50;;
20647;SDS011;10483;44.646;10.924;2022-08-05T13:32:18;3.15;;;2.90;;
20647;SDS011;10483;44.646;10.924;2022-08-05T13:34:46;3.02;;;2.77;;
20647;SDS011;10483;44.646;10.924;2022-08-05T13:37:14;3.25;;;2.70;;
20647;SDS011;10483;44.646;10.924;2022-08-05T13:39:40;3.12;;;2.92;;
20647;SDS011;10483;44.646;10.924;2022-08-05T13:42:07;2.80;;;2.60;;
20647;SDS011;10483;44.646;10.924;2022-08-05T13:44:35;2.75;;;2.55;;
20647;SDS011;10483;44.646;10.924;2022-08-05T13:47:01;2.92;;;2.72;;
20647;SDS011;10483;44.646;10.924;2022-08-05T13:49:28;2.85;;;2.65;;
20647;SDS011;10483;44.646;10.924;2022-08-05T13:51:55;2.65;;;2.45;;
20647;SDS011;10483;44.646;10.924;2022-08-05T13:54:21;3.37;;;2.87;;
20647;SDS011;10483;44.646;10.924;2022-08-05T13:56:50;2.98;;;2.77;;
20647;SDS011;10483;44.646;10.924;2022-08-05T13:59:18;3.40;;;3.00;;
20647;SDS011;10483;44.646;10.924;2022-08-05T14:01:47;4.05;;;2.80;;
20647;SDS011;10483;44.646;10.924;2022-08-05T14:04:14;2.85;;;2.67;;
20647;SDS011;10483;44.646;10.924;2022-08-05T14:06:46;3.05;;;2.85;;
20647;SDS011;10483;44.646;10.924;2022-08-05T14:09:13;3.22;;;3.02;;
20647;SDS011;10483;44.646;10.924;2022-08-05T14:11:39;3.08;;;2.87;;
20647;SDS011;10483;44.646;10.924;2022-08-05T14:14:07;3.58;;;3.00;;
20647;SDS011;10483;44.646;10.924;2022-08-05T14:16:33;2.85;;;2.60;;
20647;SDS011;10483;44.646;10.924;2022-08-05T14:19:00;4.12;;;3.20;;
20647;SDS011;10483;44.646;10.924;2022-08-05T14:21:27;3.42;;;3.12;;
20647;SDS011;10483;44.646;10.924;2022-08-05T14:23:53;3.22;;;2.92;;
20647;SDS011;10483;44.646;10.924;2022-08-05T14:26:20;2.85;;;2.67;;
20647;SDS011;10483;44.646;10.924;2022-08-05T14:28:47;4.47;;;3.20;;
20647;SDS011;10483;44.646;10.924;2022-08-05T14:31:14;3.70;;;3.37;;
20647;SDS011;10483;44.646;10.924;2022-08-05T14:33:40;2.98;;;2.77;;
20647;SDS011;10483;44.646;10.924;2022-08-05T14:36:07;3.67;;;3.05;;
20647;SDS011;10483;44.646;10.924;2022-08-05T14:38:33;4.12;;;2.98;;
20647;SDS011;10483;44.646;10.924;2022-08-05T14:41:01;3.15;;;2.90;;
20647;SDS011;10483;44.646;10.924;2022-08-05T14:43:29;2.90;;;2.70;;
20647;SDS011;10483;44.646;10.924;2022-08-05T14:45:56;3.22;;;3.02;;
20647;SDS011;10483;44.646;10.924;2022-08-05T14:48:23;3.50;;;3.20;;
20647;SDS011;10483;44.646;10.924;2022-08-05T14:50:49;3.08;;;2.87;;